Time;durP1;ratioP1;P1;durP2;ratioP2;P2;SDS_P1;SDS_P2;PMS_P1;PMS_P2;Temp;Humidity;BMP_temperature;BMP_pressure;BME280_temperature;BME280_humidity;BME280_pressure;Samples;Min_cycle;Max_cycle;Signal;HPM_P1;HPM_P2
2021/07/21 00:02:01;;;;;;;;;;;18.00;81.60;;;;;;5009209;28;20317;-64
2021/07/21 00:04:45;;;;;;;;;;;18.10;81.80;;;;;;5013159;28;20007;-63
2021/07/21 00:07:15;;;;;;;;;;;18.10;81.90;;;;;;5049248;28;19963;-63
2021/07/21 00:09:43;;;;;;;;;;;18.00;82.00;;;;;;5051002;28;19967;-63
2021/07/21 00:14:53;;;;;;;;;;;18.10;82.10;;;;;;5050772;28;19967;-64
2021/07/21 00:17:20;;;;;;;;;;;18.00;82.00;;;;;;5050737;28;19921;-63
2021/07/21 00:20:08;;;;;;;;;;;18.00;82.20;;;;;;5050163;28;19928;-64
2021/07/21 00:22:34;;;;;;;;;;;18.10;82.30;;;;;;5051071;28;19924;-64
2021/07/21 00:24:59;;;;;;;;;;;18.10;82.40;;;;;;5052911;28;19921;-64
2021/07/21 00:27:25;;;;;;;;;;;18.00;82.40;;;;;;5054337;28;19913;-64
2021/07/21 00:29:51;;;;;;;;;;;18.00;82.60;;;;;;5054240;28;20395;-63
2021/07/21 00:32:16;;;;;;;;;;;18.00;82.60;;;;;;5054484;28;19916;-62
2021/07/21 00:34:42;;;;;;;;;;;18.00;82.70;;;;;;5053470;28;19921;-63
2021/07/21 00:37:08;;;;;;;;;;;18.00;82.80;;;;;;5053717;28;19967;-62
2021/07/21 00:39:34;;;;;;;;;;;18.00;82.90;;;;;;5054319;28;19928;-62
2021/07/21 00:42:01;;;;;;;;;;;18.00;82.80;;;;;;5053029;28;19917;-62
2021/07/21 00:44:26;;;;;;;;;;;18.00;82.90;;;;;;5069109;28;19917;-62
2021/07/21 00:46:54;;;;;;;;;;;18.00;83.10;;;;;;5052661;28;19917;-62
2021/07/21 00:49:24;;;;;;;;;;;18.00;83.20;;;;;;5053745;28;20298;-62
2021/07/21 00:51:52;;;;;;;;;;;18.00;83.30;;;;;;5037150;28;19917;-62
2021/07/21 00:54:20;;;;;;;;;;;17.90;83.40;;;;;;5052703;28;19947;-62
2021/07/21 00:56:46;;;;;;;;;;;17.90;83.60;;;;;;5035550;28;19924;-63
2021/07/21 00:59:13;;;;;;;;;;;17.90;83.80;;;;;;5052525;28;20388;-62
2021/07/21 01:01:41;;;;;;;;;;;17.90;83.90;;;;;;5053565;28;20399;-63
2021/07/21 01:04:07;;;;;;;;;;;17.90;83.90;;;;;;5052524;28;19917;-62
2021/07/21 01:06:32;;;;;;;;;;;17.90;84.00;;;;;;5053935;28;19956;-63
2021/07/21 01:08:59;;;;;;;;;;;17.80;84.20;;;;;;5051803;28;19969;-63
2021/07/21 01:11:35;;;;;;;;;;;17.80;84.30;;;;;;5052500;28;19918;-62
2021/07/21 01:14:25;;;;;;;;;;;17.80;84.30;;;;;;5051910;28;20369;-62
2021/07/21 01:16:57;;;;;;;;;;;17.70;84.40;;;;;;5052214;28;20044;-62
2021/07/21 01:19:42;;;;;;;;;;;17.70;84.60;;;;;;5051997;28;19947;-62
2021/07/21 01:22:24;;;;;;;;;;;17.70;84.70;;;;;;5053073;28;19924;-62
2021/07/21 01:24:57;;;;;;;;;;;17.60;84.90;;;;;;5052151;28;20448;-62
2021/07/21 01:27:36;;;;;;;;;;;17.70;85.00;;;;;;5052788;28;20000;-62
2021/07/21 01:30:25;;;;;;;;;;;17.60;85.20;;;;;;5053559;28;19971;-63
2021/07/21 01:32:57;;;;;;;;;;;17.70;85.30;;;;;;5043721;28;19923;-62
2021/07/21 01:35:25;;;;;;;;;;;17.60;85.80;;;;;;5051436;28;19925;-62
2021/07/21 01:37:54;;;;;;;;;;;17.70;85.50;;;;;;5051163;28;19925;-62
2021/07/21 01:40:23;;;;;;;;;;;17.70;85.50;;;;;;5051899;28;19967;-63
2021/07/21 01:42:51;;;;;;;;;;;17.70;85.50;;;;;;5051410;28;19925;-62
2021/07/21 01:45:17;;;;;;;;;;;17.70;85.60;;;;;;5051785;28;19941;-63
2021/07/21 01:47:44;;;;;;;;;;;17.70;85.70;;;;;;5051463;28;20399;-63
2021/07/21 01:50:11;;;;;;;;;;;17.70;85.70;;;;;;5051352;28;19920;-62
2021/07/21 01:52:39;;;;;;;;;;;17.60;85.60;;;;;;5051612;28;20021;-63
2021/07/21 01:55:07;;;;;;;;;;;17.70;85.80;;;;;;5052876;28;19967;-63
2021/07/21 01:57:41;;;;;;;;;;;17.60;85.90;;;;;;5052289;28;20375;-63
2021/07/21 02:00:18;;;;;;;;;;;17.70;86.00;;;;;;5051240;28;20288;-63
2021/07/21 02:02:50;;;;;;;;;;;17.60;86.00;;;;;;5051615;28;19917;-62
2021/07/21 02:05:24;;;;;;;;;;;17.60;86.30;;;;;;5051577;28;20388;-62
2021/07/21 02:07:51;;;;;;;;;;;17.60;86.20;;;;;;5067407;28;20293;-62
2021/07/21 02:10:19;;;;;;;;;;;17.60;86.40;;;;;;5051369;28;19920;-62
2021/07/21 02:13:00;;;;;;;;;;;17.60;86.60;;;;;;5052408;28;20392;-62
2021/07/21 02:15:28;;;;;;;;;;;17.60;86.60;;;;;;5051154;28;19956;-62
2021/07/21 02:17:56;;;;;;;;;;;17.60;86.60;;;;;;5050415;28;19920;-62
2021/07/21 02:20:24;;;;;;;;;;;17.50;86.70;;;;;;5051240;28;20007;-63
2021/07/21 02:22:54;;;;;;;;;;;17.50;86.90;;;;;;5050871;28;19968;-62
2021/07/21 02:25:38;;;;;;;;;;;17.50;87.00;;;;;;5052493;28;19940;-63
2021/07/21 02:28:04;;;;;;;;;;;17.50;87.20;;;;;;5051771;28;19970;-62
2021/07/21 02:30:38;;;;;;;;;;;17.50;87.20;;;;;;5051185;28;19962;-62
2021/07/21 02:33:10;;;;;;;;;;;17.50;87.50;;;;;;5050502;28;19970;-62
2021/07/21 02:35:36;;;;;;;;;;;17.50;87.70;;;;;;5050756;28;19936;-62
2021/07/21 02:38:02;;;;;;;;;;;17.50;87.70;;;;;;5050500;28;19928;-63
2021/07/21 02:40:36;;;;;;;;;;;17.50;87.60;;;;;;5050476;28;19932;-62
2021/07/21 02:43:22;;;;;;;;;;;17.50;87.70;;;;;;5051281;28;19924;-61
2021/07/21 02:45:47;;;;;;;;;;;17.50;88.00;;;;;;5049859;28;19920;-62
2021/07/21 02:48:13;;;;;;;;;;;17.50;88.00;;;;;;5050355;28;19917;-62
2021/07/21 02:50:42;;;;;;;;;;;17.50;87.90;;;;;;5050188;28;19921;-62
2021/07/21 02:53:13;;;;;;;;;;;17.40;88.00;;;;;;5050614;28;20262;-63
2021/07/21 02:56:12;;;;;;;;;;;17.50;88.10;;;;;;5032748;28;19965;-62
2021/07/21 02:59:03;;;;;;;;;;;17.50;88.20;;;;;;5066938;28;19928;-62
2021/07/21 03:01:32;;;;;;;;;;;17.50;88.20;;;;;;5050045;28;20436;-63
2021/07/21 03:04:00;;;;;;;;;;;17.50;88.20;;;;;;5050324;28;20442;-62
2021/07/21 03:06:27;;;;;;;;;;;17.40;88.40;;;;;;5033778;28;19999;-62
2021/07/21 03:09:05;;;;;;;;;;;17.50;88.60;;;;;;5051670;28;19917;-63
2021/07/21 03:11:49;;;;;;;;;;;17.50;88.60;;;;;;5050074;28;19928;-62
2021/07/21 03:14:16;;;;;;;;;;;17.50;88.40;;;;;;5050162;28;19943;-62
2021/07/21 03:16:46;;;;;;;;;;;17.50;88.60;;;;;;5050765;28;19963;-62
2021/07/21 03:19:25;;;;;;;;;;;17.50;88.60;;;;;;5050152;28;19921;-63
2021/07/21 03:21:55;;;;;;;;;;;17.50;88.70;;;;;;5051241;28;19917;-62
2021/07/21 03:24:23;;;;;;;;;;;17.50;88.70;;;;;;5049972;28;19924;-63
2021/07/21 03:26:50;;;;;;;;;;;17.50;88.70;;;;;;5051153;28;19921;-63
2021/07/21 03:29:20;;;;;;;;;;;17.50;88.80;;;;;;5049913;28;19916;-62
2021/07/21 03:31:48;;;;;;;;;;;17.50;88.80;;;;;;5050145;28;19921;-62
2021/07/21 03:34:14;;;;;;;;;;;17.50;88.90;;;;;;5050766;28;19924;-62
2021/07/21 03:36:49;;;;;;;;;;;17.50;89.00;;;;;;5049919;28;19931;-63
2021/07/21 03:39:27;;;;;;;;;;;17.40;88.80;;;;;;5051050;28;19921;-63
2021/07/21 03:42:17;;;;;;;;;;;17.40;88.90;;;;;;5045375;28;19967;-62
2021/07/21 03:44:45;;;;;;;;;;;17.50;89.00;;;;;;5049656;28;19917;-62
2021/07/21 03:47:16;;;;;;;;;;;17.50;89.10;;;;;;5049632;28;20369;-63
2021/07/21 03:49:43;;;;;;;;;;;17.40;89.20;;;;;;5033213;28;19917;-63
2021/07/21 03:52:16;;;;;;;;;;;17.50;89.30;;;;;;5051283;28;20321;-62
2021/07/21 03:55:01;;;;;;;;;;;17.50;89.20;;;;;;5050981;28;19956;-63
2021/07/21 03:57:36;;;;;;;;;;;17.50;88.90;;;;;;5051444;28;19940;-63
2021/07/21 04:00:05;;;;;;;;;;;17.50;89.00;;;;;;5053423;28;19970;-62
2021/07/21 04:02:40;;;;;;;;;;;17.50;89.20;;;;;;5055091;28;20288;-62
2021/07/21 04:05:07;;;;;;;;;;;17.50;89.00;;;;;;5054529;28;19926;-63
2021/07/21 04:07:34;;;;;;;;;;;17.50;89.10;;;;;;5053278;28;20429;-63
2021/07/21 04:10:08;;;;;;;;;;;17.50;89.10;;;;;;5054629;28;19925;-62
2021/07/21 04:12:43;;;;;;;;;;;17.50;89.00;;;;;;5053551;28;19917;-63
2021/07/21 04:15:12;;;;;;;;;;;17.50;89.10;;;;;;5053035;28;19924;-62
2021/07/21 04:17:54;;;;;;;;;;;17.50;89.10;;;;;;5053140;28;20262;-62
2021/07/21 04:20:23;;;;;;;;;;;17.50;89.20;;;;;;5053013;28;20293;-62
2021/07/21 04:22:51;;;;;;;;;;;17.50;89.10;;;;;;5053430;28;19927;-62
2021/07/21 04:25:19;;;;;;;;;;;17.60;89.10;;;;;;5054086;28;19923;-61
2021/07/21 04:27:49;;;;;;;;;;;17.60;89.10;;;;;;5052926;28;20463;-63
2021/07/21 04:30:18;;;;;;;;;;;17.60;89.10;;;;;;5053256;28;20312;-63
2021/07/21 04:32:46;;;;;;;;;;;17.60;89.20;;;;;;5054066;28;19998;-62
2021/07/21 04:35:16;;;;;;;;;;;17.70;89.30;;;;;;5052963;28;20292;-63
2021/07/21 04:37:48;;;;;;;;;;;17.70;88.90;;;;;;5052402;28;20418;-62
2021/07/21 04:40:15;;;;;;;;;;;17.70;89.00;;;;;;5053085;28;19952;-63
2021/07/21 04:42:44;;;;;;;;;;;17.70;88.90;;;;;;5054465;28;20175;-63
2021/07/21 04:45:13;;;;;;;;;;;17.70;88.90;;;;;;5054255;28;19947;-62
2021/07/21 04:47:41;;;;;;;;;;;17.70;88.70;;;;;;5052611;28;19967;-63
2021/07/21 04:50:13;;;;;;;;;;;17.80;88.90;;;;;;5053733;28;19924;-63
2021/07/21 04:52:39;;;;;;;;;;;17.80;88.80;;;;;;5052743;28;20270;-62
2021/07/21 04:55:07;;;;;;;;;;;17.80;88.80;;;;;;5053802;28;19917;-62
2021/07/21 04:57:33;;;;;;;;;;;17.80;88.70;;;;;;5053654;28;19916;-62
2021/07/21 05:00:05;;;;;;;;;;;17.80;88.70;;;;;;5052769;28;19916;-62
2021/07/21 05:02:47;;;;;;;;;;;17.80;88.80;;;;;;5052357;28;19917;-62
2021/07/21 05:05:14;;;;;;;;;;;17.80;88.60;;;;;;5053902;28;20024;-62
2021/07/21 05:07:50;;;;;;;;;;;17.90;88.40;;;;;;5053591;28;19942;-62
2021/07/21 05:10:17;;;;;;;;;;;17.90;88.60;;;;;;5051833;28;19966;-62
2021/07/21 05:12:46;;;;;;;;;;;17.90;88.80;;;;;;5051993;28;20025;-62
2021/07/21 05:15:14;;;;;;;;;;;17.90;88.80;;;;;;5052298;28;19917;-62
2021/07/21 05:17:39;;;;;;;;;;;17.90;88.60;;;;;;5053189;28;20427;-62
2021/07/21 05:20:12;;;;;;;;;;;17.90;88.30;;;;;;5053343;28;19913;-62
2021/07/21 05:22:54;;;;;;;;;;;17.90;88.30;;;;;;5052202;28;20337;-63
2021/07/21 05:25:20;;;;;;;;;;;17.90;88.30;;;;;;5051663;28;19955;-63
2021/07/21 05:28:03;;;;;;;;;;;17.80;88.20;;;;;;5051325;28;19920;-61
2021/07/21 05:30:29;;;;;;;;;;;17.80;88.20;;;;;;5051847;28;19921;-62
2021/07/21 05:33:03;;;;;;;;;;;17.80;88.40;;;;;;5052110;28;20382;-63
2021/07/21 05:35:31;;;;;;;;;;;17.80;88.50;;;;;;5051394;28;20320;-63
2021/07/21 05:38:11;;;;;;;;;;;17.80;88.70;;;;;;5053005;28;19928;-63
2021/07/21 05:40:38;;;;;;;;;;;17.80;88.50;;;;;;5051209;28;20300;-63
2021/07/21 05:43:09;;;;;;;;;;;17.80;88.40;;;;;;5051816;28;19916;-62
2021/07/21 05:45:46;;;;;;;;;;;17.90;88.40;;;;;;5052623;28;19917;-63
2021/07/21 05:48:13;;;;;;;;;;;17.90;88.60;;;;;;5053149;28;19917;-63
2021/07/21 05:50:58;;;;;;;;;;;17.90;88.80;;;;;;5052435;28;19913;-62
2021/07/21 05:53:24;;;;;;;;;;;17.90;88.60;;;;;;5052015;28;20304;-65
2021/07/21 05:55:50;;;;;;;;;;;18.00;88.50;;;;;;5052569;28;19924;-62
2021/07/21 05:58:19;;;;;;;;;;;18.00;88.40;;;;;;5051152;28;19966;-63
2021/07/21 06:00:46;;;;;;;;;;;18.00;88.20;;;;;;5051197;28;19916;-63
2021/07/21 06:03:20;;;;;;;;;;;17.90;88.30;;;;;;5050655;28;19944;-62
2021/07/21 06:06:08;;;;;;;;;;;17.90;88.40;;;;;;5052142;28;19962;-63
2021/07/21 06:08:54;;;;;;;;;;;18.00;88.50;;;;;;5052310;28;20396;-63
2021/07/21 06:11:22;;;;;;;;;;;18.00;88.40;;;;;;5050797;28;19927;-62
2021/07/21 06:13:48;;;;;;;;;;;18.00;88.20;;;;;;5052491;28;19913;-62
2021/07/21 06:16:15;;;;;;;;;;;17.90;88.30;;;;;;5051197;28;19923;-63
2021/07/21 06:18:42;;;;;;;;;;;17.90;88.50;;;;;;5050374;28;20380;-62
2021/07/21 06:21:08;;;;;;;;;;;18.00;88.80;;;;;;5050094;28;19917;-65
2021/07/21 06:23:36;;;;;;;;;;;18.00;88.60;;;;;;5050634;28;20376;-62
2021/07/21 06:26:02;;;;;;;;;;;18.00;88.50;;;;;;5050940;28;20003;-63
2021/07/21 06:28:54;;;;;;;;;;;18.10;88.80;;;;;;5050302;28;19923;-63
2021/07/21 06:31:20;;;;;;;;;;;18.10;88.50;;;;;;5050853;28;19924;-63
2021/07/21 06:33:48;;;;;;;;;;;18.20;88.50;;;;;;5051951;28;19924;-61
2021/07/21 06:36:14;;;;;;;;;;;18.10;88.10;;;;;;5052440;28;20011;-62
2021/07/21 06:38:41;;;;;;;;;;;18.10;88.50;;;;;;5050182;28;19921;-64
2021/07/21 06:41:13;;;;;;;;;;;18.20;89.00;;;;;;5051772;28;20365;-62
2021/07/21 06:43:41;;;;;;;;;;;18.30;89.10;;;;;;5050718;28;19928;-62
2021/07/21 06:46:15;;;;;;;;;;;18.40;88.80;;;;;;5051769;28;19917;-62
2021/07/21 06:48:44;;;;;;;;;;;18.50;88.90;;;;;;5050326;28;19917;-62
2021/07/21 06:51:11;;;;;;;;;;;18.70;88.60;;;;;;5051214;28;19916;-62
2021/07/21 06:53:38;;;;;;;;;;;18.80;88.50;;;;;;5050400;28;19997;-62
2021/07/21 06:56:12;;;;;;;;;;;18.90;89.00;;;;;;5051611;28;19924;-64
2021/07/21 06:58:58;;;;;;;;;;;19.20;88.80;;;;;;5050520;28;19921;-62
2021/07/21 07:01:26;;;;;;;;;;;19.50;88.90;;;;;;5051582;28;20407;-63
2021/07/21 07:04:21;;;;;;;;;;;19.80;88.30;;;;;;5050935;28;19943;-63
2021/07/21 07:07:05;;;;;;;;;;;20.10;87.70;;;;;;5051479;28;20291;-63
2021/07/21 07:10:06;;;;;;;;;;;20.30;87.20;;;;;;5040433;28;19924;-66
2021/07/21 07:12:45;;;;;;;;;;;20.60;86.80;;;;;;5050683;28;19924;-66
2021/07/21 07:15:11;;;;;;;;;;;21.00;87.50;;;;;;5051074;28;19939;-63
2021/07/21 07:17:37;;;;;;;;;;;22.10;90.50;;;;;;5051341;28;19974;-63
2021/07/21 07:20:03;;;;;;;;;;;23.60;89.70;;;;;;5051493;28;20390;-63
2021/07/21 07:22:28;;;;;;;;;;;24.90;85.60;;;;;;5051094;28;19923;-64
2021/07/21 07:24:54;;;;;;;;;;;25.60;81.70;;;;;;5051233;28;19917;-64
2021/07/21 07:27:20;;;;;;;;;;;25.70;78.10;;;;;;5050885;28;19920;-62
2021/07/21 07:29:45;;;;;;;;;;;25.50;75.70;;;;;;5049951;28;20357;-64
2021/07/21 07:32:11;;;;;;;;;;;25.40;74.80;;;;;;5051045;28;20015;-64
2021/07/21 07:34:36;;;;;;;;;;;25.80;76.30;;;;;;5050920;28;19927;-63
2021/07/21 07:37:02;;;;;;;;;;;26.20;73.60;;;;;;5049552;28;19917;-63
2021/07/21 07:39:28;;;;;;;;;;;25.80;70.00;;;;;;5051179;28;19951;-64
2021/07/21 07:41:53;;;;;;;;;;;25.20;68.90;;;;;;5049413;28;19935;-64
2021/07/21 07:44:19;;;;;;;;;;;24.50;68.40;;;;;;5051154;28;19939;-64
2021/07/21 07:46:44;;;;;;;;;;;23.90;68.30;;;;;;5051102;28;19921;-63
2021/07/21 07:49:10;;;;;;;;;;;23.30;69.00;;;;;;5050774;28;19924;-63
2021/07/21 07:51:36;;;;;;;;;;;22.90;69.50;;;;;;5051010;28;19917;-64
2021/07/21 07:54:02;;;;;;;;;;;22.50;69.60;;;;;;5050440;28;19917;-63
2021/07/21 07:56:28;;;;;;;;;;;22.20;69.90;;;;;;5051175;28;19923;-64
2021/07/21 07:58:54;;;;;;;;;;;21.80;70.20;;;;;;5050673;28;19932;-63
2021/07/21 08:01:19;;;;;;;;;;;21.50;69.80;;;;;;5050689;28;19921;-63
2021/07/21 08:03:45;;;;;;;;;;;21.00;70.40;;;;;;5051082;28;20000;-62
2021/07/21 08:06:11;;;;;;;;;;;20.70;70.80;;;;;;5049585;28;19917;-65
2021/07/21 08:08:36;;;;;;;;;;;20.40;71.50;;;;;;5050473;28;19916;-65
2021/07/21 08:11:04;;;;;;;;;;;20.20;72.10;;;;;;5050952;28;19917;-62
2021/07/21 08:13:29;;;;;;;;;;;20.10;72.70;;;;;;5050589;28;19924;-63
2021/07/21 08:15:55;;;;;;;;;;;20.00;73.30;;;;;;5050944;28;19925;-62
2021/07/21 08:18:21;;;;;;;;;;;20.10;74.00;;;;;;5050537;28;19921;-64
2021/07/21 08:20:46;;;;;;;;;;;20.30;74.20;;;;;;5050374;28;19916;-61
2021/07/21 08:23:12;;;;;;;;;;;20.40;74.20;;;;;;5050835;28;19916;-60
2021/07/21 08:25:37;;;;;;;;;;;20.60;73.80;;;;;;5050807;28;20012;-60
2021/07/21 08:28:04;;;;;;;;;;;20.70;73.80;;;;;;5032541;28;20058;-60
2021/07/21 08:30:30;;;;;;;;;;;20.80;73.80;;;;;;5050840;28;19995;-60
2021/07/21 08:32:56;;;;;;;;;;;21.10;74.60;;;;;;5050455;28;19917;-61
2021/07/21 08:35:23;;;;;;;;;;;21.50;75.10;;;;;;5050678;28;19920;-60
2021/07/21 08:37:49;;;;;;;;;;;21.90;74.00;;;;;;5050437;28;20444;-60
2021/07/21 08:40:16;;;;;;;;;;;22.10;72.70;;;;;;5050302;28;20012;-61
2021/07/21 08:42:41;;;;;;;;;;;22.10;71.10;;;;;;5049420;28;19921;-60
2021/07/21 08:45:08;;;;;;;;;;;22.00;70.70;;;;;;5052714;28;19924;-60
2021/07/21 08:47:34;;;;;;;;;;;21.80;70.50;;;;;;5052831;28;19958;-60
2021/07/21 08:50:01;;;;;;;;;;;21.70;70.80;;;;;;5054082;28;20381;-60
2021/07/21 08:52:26;;;;;;;;;;;21.60;70.40;;;;;;5053945;28;19916;-62
2021/07/21 08:54:58;;;;;;;;;;;21.50;70.90;;;;;;5054077;28;19917;-62
2021/07/21 08:57:24;;;;;;;;;;;21.50;70.10;;;;;;5053818;28;19923;-62
2021/07/21 08:59:49;;;;;;;;;;;21.40;70.20;;;;;;5053736;28;20335;-61
2021/07/21 09:02:15;;;;;;;;;;;21.40;70.30;;;;;;5052825;28;19966;-62
2021/07/21 09:04:41;;;;;;;;;;;21.40;70.50;;;;;;5053286;28;20270;-62
2021/07/21 09:07:07;;;;;;;;;;;21.30;70.20;;;;;;5053521;28;19916;-62
2021/07/21 09:09:36;;;;;;;;;;;21.40;71.00;;;;;;5053939;28;19924;-63
2021/07/21 09:12:02;;;;;;;;;;;21.60;70.80;;;;;;5053357;28;20399;-62
2021/07/21 09:14:28;;;;;;;;;;;21.70;70.50;;;;;;5053807;28;19917;-62
2021/07/21 09:17:04;;;;;;;;;;;22.00;70.50;;;;;;5053505;28;19923;-62
2021/07/21 09:19:33;;;;;;;;;;;22.30;70.70;;;;;;5053271;28;19921;-62
2021/07/21 09:22:12;;;;;;;;;;;22.80;70.00;;;;;;5053683;28;19955;-62
2021/07/21 09:24:38;;;;;;;;;;;23.10;69.60;;;;;;5053285;28;19917;-62
2021/07/21 09:27:03;;;;;;;;;;;23.60;70.30;;;;;;5053251;28;20396;-62
2021/07/21 09:29:29;;;;;;;;;;;24.30;69.00;;;;;;5053078;28;20171;-63
2021/07/21 09:31:58;;;;;;;;;;;24.70;68.20;;;;;;5053471;28;20342;-60
2021/07/21 09:34:25;;;;;;;;;;;24.80;64.70;;;;;;5053289;28;19917;-62
2021/07/21 09:37:01;;;;;;;;;;;24.60;63.50;;;;;;5052697;28;19970;-62
2021/07/21 09:39:37;;;;;;;;;;;24.30;63.60;;;;;;5053327;28;20379;-62
2021/07/21 09:42:04;;;;;;;;;;;24.10;63.90;;;;;;5052829;28;19916;-62
2021/07/21 09:44:36;;;;;;;;;;;23.80;63.50;;;;;;5053264;28;19955;-62
2021/07/21 09:47:11;;;;;;;;;;;23.30;63.10;;;;;;5052390;28;19925;-62
2021/07/21 09:49:36;;;;;;;;;;;22.80;63.40;;;;;;5053102;28;19931;-62
2021/07/21 09:52:21;;;;;;;;;;;22.20;63.50;;;;;;5052721;28;20000;-62
2021/07/21 09:55:06;;;;;;;;;;;21.50;64.60;;;;;;5052659;28;19962;-61
2021/07/21 09:57:33;;;;;;;;;;;21.00;65.80;;;;;;5052276;28;19916;-62
2021/07/21 09:59:59;;;;;;;;;;;20.60;67.50;;;;;;5051431;28;19925;-62
2021/07/21 10:02:27;;;;;;;;;;;20.30;68.40;;;;;;5052482;28;19917;-62
2021/07/21 10:04:53;;;;;;;;;;;20.30;69.60;;;;;;5052728;28;19916;-65
2021/07/21 10:10:11;;;;;;;;;;;20.40;71.00;;;;;;5051106;28;19917;-60
2021/07/21 10:12:37;;;;;;;;;;;20.50;71.10;;;;;;5052835;28;19917;-60
2021/07/21 10:15:03;;;;;;;;;;;20.60;71.00;;;;;;5052108;28;19939;-60
2021/07/21 10:17:28;;;;;;;;;;;20.70;71.30;;;;;;5052185;28;19923;-60
2021/07/21 10:19:57;;;;;;;;;;;21.00;72.30;;;;;;5052368;28;19921;-60
2021/07/21 10:22:23;;;;;;;;;;;21.50;72.30;;;;;;5050785;28;19959;-60
2021/07/21 10:24:48;;;;;;;;;;;21.90;70.80;;;;;;5052320;28;19956;-60
2021/07/21 10:27:15;;;;;;;;;;;22.10;70.00;;;;;;5050361;28;19924;-61
2021/07/21 10:29:42;;;;;;;;;;;22.40;70.10;;;;;;5052387;28;19917;-61
2021/07/21 10:32:07;;;;;;;;;;;22.60;69.10;;;;;;5052239;28;20384;-60
2021/07/21 10:34:33;;;;;;;;;;;22.80;68.70;;;;;;5051653;28;19917;-61
2021/07/21 10:36:59;;;;;;;;;;;23.10;68.80;;;;;;5051978;28;20301;-60
2021/07/21 10:39:27;;;;;;;;;;;23.30;67.50;;;;;;5052201;28;20297;-61
2021/07/21 10:41:53;;;;;;;;;;;23.70;67.40;;;;;;5051608;28;19925;-61
2021/07/21 10:44:19;;;;;;;;;;;23.90;66.30;;;;;;5034014;28;19917;-60
2021/07/21 10:46:44;;;;;;;;;;;23.90;65.50;;;;;;5051453;28;20293;-61
2021/07/21 10:49:30;;;;;;;;;;;23.80;64.10;;;;;;5050657;28;19916;-60
2021/07/21 11:00:13;;;;;;;;;;;23.50;65.10;;;;;;5051460;28;19921;-60
2021/07/21 11:02:39;;;;;;;;;;;23.80;65.00;;;;;;5051776;28;19919;-60
2021/07/21 11:05:05;;;;;;;;;;;24.00;64.80;;;;;;5051167;28;19924;-59
2021/07/21 11:08:00;;;;;;;;;;;24.10;63.70;;;;;;5050617;28;19920;-61
2021/07/21 11:10:32;;;;;;;;;;;24.20;64.00;;;;;;5040990;28;19971;-61
2021/07/21 11:12:58;;;;;;;;;;;24.30;62.90;;;;;;5051597;28;19923;-61
2021/07/21 11:15:35;;;;;;;;;;;24.20;62.70;;;;;;5051163;28;20293;-61
2021/07/21 11:18:16;;;;;;;;;;;24.00;62.00;;;;;;5051078;28;19963;-60
2021/07/21 11:21:14;;;;;;;;;;;23.80;61.90;;;;;;5049880;28;19956;-60
2021/07/21 11:23:40;;;;;;;;;;;23.50;62.30;;;;;;5028102;28;20418;-61
2021/07/21 11:26:25;;;;;;;;;;;23.40;62.80;;;;;;5051364;28;20003;-60
2021/07/21 11:28:50;;;;;;;;;;;23.50;63.00;;;;;;5050924;28;19928;-60
2021/07/21 11:31:16;;;;;;;;;;;23.60;62.80;;;;;;5051355;28;19921;-60
2021/07/21 11:33:54;;;;;;;;;;;23.70;62.60;;;;;;5049952;28;19917;-60
2021/07/21 11:36:38;;;;;;;;;;;23.70;62.70;;;;;;5051141;28;19928;-60
2021/07/21 11:39:04;;;;;;;;;;;23.80;63.10;;;;;;5050740;28;19960;-61
2021/07/21 11:41:48;;;;;;;;;;;24.70;63.40;;;;;;5051290;28;19917;-60
2021/07/21 11:44:34;;;;;;;;;;;25.20;61.90;;;;;;5050956;28;19939;-61
2021/07/21 11:47:01;;;;;;;;;;;25.50;60.00;;;;;;5050957;28;20500;-61
2021/07/21 11:49:28;;;;;;;;;;;25.70;60.00;;;;;;5050780;28;19916;-59
2021/07/21 11:51:55;;;;;;;;;;;26.00;59.70;;;;;;5051138;28;19917;-58
2021/07/21 11:54:30;;;;;;;;;;;26.20;58.90;;;;;;5051257;28;19916;-60
2021/07/21 11:56:56;;;;;;;;;;;26.60;58.80;;;;;;5050696;28;20008;-60
2021/07/21 11:59:25;;;;;;;;;;;27.00;58.30;;;;;;5051026;28;20189;-60
2021/07/21 12:02:05;;;;;;;;;;;27.40;57.60;;;;;;5050762;28;19931;-60
2021/07/21 12:04:31;;;;;;;;;;;27.30;55.00;;;;;;5051015;28;19917;-60
2021/07/21 12:06:57;;;;;;;;;;;27.10;55.50;;;;;;5049287;28;20103;-60
2021/07/21 12:09:27;;;;;;;;;;;27.10;54.80;;;;;;5049660;28;19921;-60
2021/07/21 12:11:53;;;;;;;;;;;26.80;55.10;;;;;;5051133;28;20300;-60
2021/07/21 12:14:21;;;;;;;;;;;26.40;53.90;;;;;;5050304;28;19940;-60
2021/07/21 12:16:46;;;;;;;;;;;26.00;54.80;;;;;;5050688;28;19917;-60
2021/07/21 12:19:12;;;;;;;;;;;25.80;55.10;;;;;;5052427;28;20016;-62
2021/07/21 12:21:37;;;;;;;;;;;25.60;55.00;;;;;;5053637;28;19948;-62
2021/07/21 12:24:04;;;;;;;;;;;25.30;54.80;;;;;;5054674;28;19924;-62
2021/07/21 12:26:39;;;;;;;;;;;25.20;56.60;;;;;;5054026;28;19917;-62
2021/07/21 12:29:05;;;;;;;;;;;25.70;56.40;;;;;;5054485;28;19928;-62
2021/07/21 12:31:30;;;;;;;;;;;26.20;55.60;;;;;;5054098;28;19924;-60
2021/07/21 12:34:12;;;;;;;;;;;26.40;55.10;;;;;;5054410;28;19960;-60
2021/07/21 12:36:41;;;;;;;;;;;26.30;54.60;;;;;;5054556;28;19925;-64
2021/07/21 12:39:07;;;;;;;;;;;25.90;54.00;;;;;;5054244;28;19934;-64
2021/07/21 12:41:33;;;;;;;;;;;25.60;54.70;;;;;;5054071;28;19917;-65
2021/07/21 12:43:58;;;;;;;;;;;25.50;55.40;;;;;;5054211;28;19917;-65
2021/07/21 12:46:24;;;;;;;;;;;25.50;55.90;;;;;;5054284;28;19983;-66
2021/07/21 12:48:53;;;;;;;;;;;25.60;55.80;;;;;;5053458;28;19921;-65
2021/07/21 12:51:19;;;;;;;;;;;25.50;55.70;;;;;;5053907;28;19952;-64
2021/07/21 12:53:45;;;;;;;;;;;25.50;55.30;;;;;;5053790;28;19963;-64
2021/07/21 12:56:11;;;;;;;;;;;25.30;55.10;;;;;;5053480;28;19923;-63
2021/07/21 12:58:37;;;;;;;;;;;24.90;54.50;;;;;;5053689;28;19921;-65
2021/07/21 13:01:02;;;;;;;;;;;24.40;55.30;;;;;;5053597;28;19932;-63
2021/07/21 13:03:28;;;;;;;;;;;24.00;55.80;;;;;;5052414;28;19952;-64
2021/07/21 13:05:56;;;;;;;;;;;23.70;56.30;;;;;;5052487;28;19920;-63
2021/07/21 13:08:32;;;;;;;;;;;23.80;57.20;;;;;;5051590;28;19966;-63
2021/07/21 13:11:03;;;;;;;;;;;24.10;57.10;;;;;;5053861;28;19924;-64
2021/07/21 13:13:30;;;;;;;;;;;24.30;56.90;;;;;;5053282;28;19932;-62
2021/07/21 13:15:57;;;;;;;;;;;24.30;56.50;;;;;;5052238;28;20313;-64
2021/07/21 13:18:27;;;;;;;;;;;24.20;56.10;;;;;;5053154;28;19927;-64
2021/07/21 13:20:53;;;;;;;;;;;24.10;56.50;;;;;;5053287;28;20032;-64
2021/07/21 13:23:20;;;;;;;;;;;24.00;56.20;;;;;;5053737;28;20392;-64
2021/07/21 13:25:47;;;;;;;;;;;23.80;56.30;;;;;;5051555;28;19940;-62
2021/07/21 13:28:23;;;;;;;;;;;23.50;56.80;;;;;;5053406;28;19923;-64
2021/07/21 13:30:52;;;;;;;;;;;23.40;57.40;;;;;;5052171;28;20008;-63
2021/07/21 13:33:18;;;;;;;;;;;23.50;57.80;;;;;;5053349;28;20012;-64
2021/07/21 13:35:44;;;;;;;;;;;23.40;57.60;;;;;;5053313;28;19928;-63
2021/07/21 13:38:09;;;;;;;;;;;23.50;58.00;;;;;;5052700;28;19916;-62
2021/07/21 13:40:35;;;;;;;;;;;23.80;58.20;;;;;;5053243;28;19920;-60
2021/07/21 13:43:07;;;;;;;;;;;23.90;57.80;;;;;;5053262;28;19917;-60
2021/07/21 13:45:33;;;;;;;;;;;24.10;56.80;;;;;;5052803;28;19931;-60
2021/07/21 13:47:58;;;;;;;;;;;24.10;56.80;;;;;;5052781;28;19924;-60
2021/07/21 13:50:24;;;;;;;;;;;24.10;56.60;;;;;;5052628;28;19917;-60
2021/07/21 13:53:04;;;;;;;;;;;23.90;56.70;;;;;;5052980;28;20008;-60
2021/07/21 13:55:30;;;;;;;;;;;23.90;57.50;;;;;;5051737;28;20007;-60
2021/07/21 13:57:55;;;;;;;;;;;24.10;57.90;;;;;;5052267;28;19960;-60
2021/07/21 14:00:22;;;;;;;;;;;24.40;57.60;;;;;;5052825;28;20380;-60
2021/07/21 14:02:48;;;;;;;;;;;24.70;57.40;;;;;;5052541;28;19921;-60
2021/07/21 14:05:13;;;;;;;;;;;24.80;56.90;;;;;;5052845;28;19923;-60
2021/07/21 14:07:39;;;;;;;;;;;25.00;56.60;;;;;;5051152;28;19917;-60
2021/07/21 14:10:04;;;;;;;;;;;24.90;56.00;;;;;;5052365;28;19924;-60
2021/07/21 14:12:30;;;;;;;;;;;24.70;55.70;;;;;;5052747;28;20400;-60
2021/07/21 14:14:56;;;;;;;;;;;24.50;55.80;;;;;;5052131;28;20338;-60
2021/07/21 14:17:21;;;;;;;;;;;24.50;56.30;;;;;;5051838;28;20007;-60
2021/07/21 14:19:47;;;;;;;;;;;24.40;56.00;;;;;;5052548;28;19928;-60
2021/07/21 14:22:13;;;;;;;;;;;24.30;55.70;;;;;;5052161;28;19956;-60
2021/07/21 14:24:38;;;;;;;;;;;24.20;55.90;;;;;;5052344;28;19931;-60
2021/07/21 14:27:04;;;;;;;;;;;24.10;56.20;;;;;;5052159;28;19917;-60
2021/07/21 14:29:30;;;;;;;;;;;24.00;56.00;;;;;;5051969;28;20004;-60
2021/07/21 14:31:55;;;;;;;;;;;23.90;56.40;;;;;;5052224;28;19920;-60
2021/07/21 14:34:21;;;;;;;;;;;24.00;56.70;;;;;;5051868;28;20332;-61
2021/07/21 14:36:47;;;;;;;;;;;24.10;56.60;;;;;;5052060;28;19920;-60
2021/07/21 14:39:14;;;;;;;;;;;24.10;56.30;;;;;;5052038;28;19920;-60
2021/07/21 14:41:41;;;;;;;;;;;24.20;56.00;;;;;;5050825;28;19917;-60
2021/07/21 14:44:07;;;;;;;;;;;24.10;55.80;;;;;;5051890;28;20035;-60
2021/07/21 14:46:32;;;;;;;;;;;24.20;56.10;;;;;;5051996;28;19951;-60